SCJO

Cañal Bajo Carlos - Hott Siebert Airport

Airport
ICAO code
SCJO
IATA Code
ZOS
Summary
ICAO Region
CARSAM
ICAO Territory
Location

Osorno, Los Lagos

Serving
Osorno
Elevation
187 ft
Coordinates
40° 36' 40" S , 73° 3' 40" W
KCC
Cfb
Metar
Observation
SCJO 131600Z 34014KT 4000 RA BKN020 OVC030 11/09 Q1005
Station
OSORNO/CANAL BAJ
Date/Time
2022-08-13 16:00:00
Wind direction
340°
Wind speed
14 kts
Lowest cloud amount
broken clouds
Temperature
11°C
Dew point
9°C
Humidity
87%
QNH
1005 hPa
Weather condition
n/a

Airport located 4 nm east of Osorno, a city in the Los Lagos Region of Chile.

Climatology

Oceanic climate (Köppen climate classification Cfb)

Runways

Designator Length Width Surface Rops
13/31 1700 36 ASP No/No

Airport map

Aerial View

SKYbrary Partners:

Safety knowledge contributed by: